1986 CHARLEY (1986226N30276)


On this page: IBTrACS data - Map and Plots - Positions - Intensities - Original source data

Summary

Start Aug 13
End Aug 30
Basin NA
LMI 70 kt
Sources hurdat_atl
atcf
In WMO? Yes
Previous storm 1986 VERA (WP)
Previous in basin 1986 MISSING (NA)
Concurrent storms 1986 GEORGETTE (EP)
1986 TIP (WP)
1986 VERA (WP)
1986 CHARLEY (NA)
1986 WAYNE (WP)
1986 WAYNE (WP)
1986 HOWARD (EP)
1986 ISIS (EP)
1986 JAVIER (EP)
1986 TD0902 (WP)
1986 KAY (EP)
Next in basin 1986 MISSING (NA)
Next storm 1986 WAYNE (WP)

top of page IBTrACS Data: File Access

top of page HURSAT Data: File Access

Image of storm

top of page Plots:

Map of storm track will not appear if FTP is down
Time series of cyclone Maximum Sustained Wind will not appear if FTP is down
Time series of cyclone Minimum Central Pressure will not appear if FTP is down

top of page Track Data:Position

hurdat_atl atcf
Date Lat Lon Lat Lon
1986-08-13 12:00:00 30.1 -84.0 30.1 -84.0
1986-08-13 18:00:00 30.8 -84.0 30.8 -84.0
1986-08-14 00:00:00 31.4 -83.6 31.4 -83.6
1986-08-14 06:00:00 32.0 -83.1 32.0 -83.1
1986-08-14 12:00:00 32.5 -82.5 32.5 -82.5
1986-08-14 18:00:00 32.4 -82.0 32.4 -82.0
1986-08-15 00:00:00 32.3 -81.2 32.3 -81.2
1986-08-15 06:00:00 32.3 -80.0 32.3 -80.0
1986-08-15 12:00:00 32.2 -79.0 32.2 -79.0
1986-08-15 18:00:00 32.2 -78.5 32.2 -78.5
1986-08-16 00:00:00 32.3 -78.1 32.3 -78.1
1986-08-16 06:00:00 32.4 -77.9 32.4 -77.9
1986-08-16 12:00:00 32.6 -77.6 32.6 -77.6
1986-08-16 18:00:00 32.9 -77.4 32.9 -77.4
1986-08-17 00:00:00 33.2 -77.1 33.2 -77.1
1986-08-17 06:00:00 33.7 -76.9 33.7 -76.9
1986-08-17 12:00:00 34.4 -76.6 34.4 -76.6
1986-08-17 18:00:00 35.4 -76.2 35.4 -76.2
1986-08-18 00:00:00 36.5 -75.8 36.5 -75.8
1986-08-18 06:00:00 37.4 -75.2 37.4 -75.2
1986-08-18 12:00:00 38.2 -74.1 38.2 -74.1
1986-08-18 18:00:00 39.0 -72.6 39.0 -72.6
1986-08-19 00:00:00 39.7 -70.9 39.7 -70.9
1986-08-19 06:00:00 40.4 -69.1 40.4 -69.1
1986-08-19 12:00:00 40.9 -67.5 40.9 -67.5
hurdat_atl atcf
1986-08-19 18:00:00 41.3 -65.8 41.3 -65.8
1986-08-20 00:00:00 41.5 -64.0 41.5 -64.0
1986-08-20 06:00:00 41.6 -62.5 41.6 -62.5
1986-08-20 12:00:00 41.7 -60.2 41.7 -60.2
1986-08-20 18:00:00 41.7 -58.4 41.7 -58.4
1986-08-21 00:00:00 41.6 -56.6 41.6 -56.6
1986-08-21 06:00:00 41.5 -54.8 41.5 -54.8
1986-08-21 12:00:00 41.4 -53.2 41.4 -53.2
1986-08-21 18:00:00 41.3 -51.2 41.3 -51.2
1986-08-22 00:00:00 41.3 -49.4 41.3 -49.4
1986-08-22 06:00:00 41.3 -47.6 41.3 -47.6
1986-08-22 12:00:00 41.4 -46.2 41.4 -46.2
1986-08-22 18:00:00 41.5 -44.8 41.5 -44.8
1986-08-23 00:00:00 41.8 -43.2 41.8 -43.2
1986-08-23 06:00:00 42.3 -41.6 42.3 -41.6
1986-08-23 12:00:00 43.0 -39.6 43.0 -39.6
1986-08-23 18:00:00 43.9 -37.2 43.9 -37.2
1986-08-24 00:00:00 44.9 -34.4 44.9 -34.4
1986-08-24 06:00:00 46.0 -31.6 46.0 -31.6
1986-08-24 12:00:00 47.0 -28.8 47.0 -28.8
1986-08-24 18:00:00 48.2 -26.0 48.2 -26.0
1986-08-25 00:00:00 49.2 -21.6 49.2 -21.6
1986-08-25 06:00:00 50.0 -16.4 50.0 -16.4
1986-08-25 12:00:00 50.7 -11.4 50.7 -11.4
hurdat_atl atcf
1986-08-25 18:00:00 51.4 -7.2 51.4 -7.2
1986-08-26 00:00:00 52.2 -4.4 52.2 -4.4
1986-08-26 06:00:00 52.9 -2.0 52.9 -2.0
1986-08-26 12:00:00 53.6 0.0 53.6 0.0
1986-08-26 18:00:00 54.3 2.0 54.3
1986-08-27 00:00:00 55.0 3.7 55.0
1986-08-27 06:00:00 55.5 5.0 55.5
1986-08-27 12:00:00 56.0 5.8 56.0
1986-08-27 18:00:00 56.3 6.0 56.3
1986-08-28 00:00:00 56.6 6.0 56.6
1986-08-28 06:00:00 56.8 6.0 56.8
1986-08-28 12:00:00 57.0 6.0 57.0
1986-08-28 18:00:00 57.0 5.5 57.0
1986-08-29 00:00:00 57.0 5.0 57.0
1986-08-29 06:00:00 56.8 5.0 56.8
1986-08-29 12:00:00 56.5 5.0 56.5
1986-08-29 18:00:00 56.2 6.0 56.2
1986-08-30 00:00:00 56.2 8.0 56.2

top of pageTrack Data:Intensity

hurdat_atl atcf
Date Wind Pres Wind Pres
1986-08-13 12:00:00 10. 1009. 10. 1009.
1986-08-13 18:00:00 10. 1012. 10. 1012.
1986-08-14 00:00:00 10. 1013. 10. 1013.
1986-08-14 06:00:00 10. 1014. 10. 1014.
1986-08-14 12:00:00 10. 1015. 10. 1015.
1986-08-14 18:00:00 10. 1015. 10. 1015.
1986-08-15 00:00:00 15. 1013. 15. 1013.
1986-08-15 06:00:00 15. 1013. 15. 1013.
1986-08-15 12:00:00 30. 1009. 30. 1009.
1986-08-15 18:00:00 35. 1007. 35. 1007.
1986-08-16 00:00:00 40. 1004. 40. 1004.
1986-08-16 06:00:00 40. 1002. 40. 1002.
1986-08-16 12:00:00 45. 999. 45. 999.
1986-08-16 18:00:00 50. 997. 50. 997.
1986-08-17 00:00:00 55. 995. 55. 995.
1986-08-17 06:00:00 60. 993. 60. 993.
1986-08-17 12:00:00 65. 991. 65. 991.
1986-08-17 18:00:00 65. 988. 65. 988.
1986-08-18 00:00:00 70. 987. 70. 987.
1986-08-18 06:00:00 65. 990. 65. 990.
1986-08-18 12:00:00 60. 992. 60. 992.
1986-08-18 18:00:00 60. 994. 60. 994.
1986-08-19 00:00:00 55. 997. 55. 997.
1986-08-19 06:00:00 50. 999. 50. 999.
1986-08-19 12:00:00 45. 1000. 45. 1000.
hurdat_atl atcf
1986-08-19 18:00:00 45. 1002. 45. 1002.
1986-08-20 00:00:00 40. 1003. 40. 1003.
1986-08-20 06:00:00 40. 1004. 40. 1004.
1986-08-20 12:00:00 40. 1005. 40. 1005.
1986-08-20 18:00:00 40. 1005. 40. 1005.
1986-08-21 00:00:00 40. 1000. 40. 1000.
1986-08-21 06:00:00 40. 997. 40. 997.
1986-08-21 12:00:00 40. 992. 40. 992.
1986-08-21 18:00:00 45. 991. 45. 991.
1986-08-22 00:00:00 45. 990. 45. 990.
1986-08-22 06:00:00 45. 989. 45. 989.
1986-08-22 12:00:00 45. 989. 45. 989.
1986-08-22 18:00:00 45. 989. 45. 989.
1986-08-23 00:00:00 45. 988. 45. 988.
1986-08-23 06:00:00 45. 989. 45. 989.
1986-08-23 12:00:00 45. 989. 45. 989.
1986-08-23 18:00:00 45. 989. 45. 989.
1986-08-24 00:00:00 45. 990. 45. 990.
1986-08-24 06:00:00 40. 992. 40. 992.
1986-08-24 12:00:00 40. 995. 40. 995.
1986-08-24 18:00:00 40. 997. 40. 997.
1986-08-25 00:00:00 40. 999. 40. 999.
1986-08-25 06:00:00 40. 1000. 40. 1000.
1986-08-25 12:00:00 40. 994. 40. 994.
hurdat_atl atcf
1986-08-25 18:00:00 50. 988. 50. 988.
1986-08-26 00:00:00 45. 981. 45. 981.
1986-08-26 06:00:00 45. 980. 45. 980.
1986-08-26 12:00:00 45. 982. 45. 982.
1986-08-26 18:00:00 45. 986. 45. 986.
1986-08-27 00:00:00 45. 984. 45. 984.
1986-08-27 06:00:00 45. 983. 45. 983.
1986-08-27 12:00:00 35. 985. 35. 985.
1986-08-27 18:00:00 35. 989. 35. 989.
1986-08-28 00:00:00 35. 989. 35. 989.
1986-08-28 06:00:00 35. 991. 35. 991.
1986-08-28 12:00:00 30. 998. 30. 998.
1986-08-28 18:00:00 30. 999. 30. 999.
1986-08-29 00:00:00 25. 1002. 25. 1002.
1986-08-29 06:00:00 20. 1004. 20. 1004.
1986-08-29 12:00:00 20. 1004. 20. 1004.
1986-08-29 18:00:00 15. 1004. 15. 1004.
1986-08-30 00:00:00 15. 1006. 15. 1006.

top of page Links to source data

Source Source file Format
hurdat_atl tracks1851to2011.txt:1133:CHARLEY HURDAT
atcf bal051986.dat ATCF